Archival Weather

Norman Y Mineta San Jose Intl

San Jose, California (KSJC)

Report from: Thursday, February 22, 2024 10:53 PM PST
Current time: Monday, June 24, 2024 3:43 AM PDT

Current weather – Weather history – Daily summaries
Weather forecast

Temperature12.2°C (54.0°F)
Dew point7.2°C (45.0°F)
Winds Calm
Visibility10 mi. (16.1 km)
Clouds Sky clear
Altimeter30.23 in.Hg (1024 mB)
Relative humidity72 %
Density altitude-539 ft. (-164 m)
Sea-level pressure102.4 kPa (1024 mB, 30.23 in.Hg)
Remarks Automated weather observing station with precipitation discriminator
Flight conditions Visual Meteorological Conditions
Raw dataKSJC 230653Z 00000KT 10SM CLR 12/07 A3023 RMK AO2 SLP237 T01220072
An error has occurred. This application may no longer respond until reloaded. Reload 🗙